sensor_id;sensor_type;location;lat;lon;timestamp;temperature;humidity
37702;DHT22;23548;51.196;6.838;2022-11-13T00:01:21;6.90;99.90
37702;DHT22;23548;51.196;6.838;2022-11-13T00:03:47;7.00;99.90
37702;DHT22;23548;51.196;6.838;2022-11-13T00:06:14;6.90;99.90
37702;DHT22;23548;51.196;6.838;2022-11-13T00:08:40;6.90;99.90
37702;DHT22;23548;51.196;6.838;2022-11-13T00:11:08;6.80;99.90
37702;DHT22;23548;51.196;6.838;2022-11-13T00:13:34;6.70;99.90
37702;DHT22;23548;51.196;6.838;2022-11-13T00:16:06;6.70;99.90
37702;DHT22;23548;51.196;6.838;2022-11-13T00:18:36;6.60;99.90
37702;DHT22;23548;51.196;6.838;2022-11-13T00:21:14;6.60;99.90
37702;DHT22;23548;51.196;6.838;2022-11-13T00:23:43;6.50;99.90
37702;DHT22;23548;51.196;6.838;2022-11-13T00:26:14;6.60;99.90
37702;DHT22;23548;51.196;6.838;2022-11-13T00:28:41;6.60;99.90
37702;DHT22;23548;51.196;6.838;2022-11-13T00:31:08;6.50;99.90
37702;DHT22;23548;51.196;6.838;2022-11-13T00:33:34;6.50;99.90
37702;DHT22;23548;51.196;6.838;2022-11-13T00:36:03;6.50;99.90
37702;DHT22;23548;51.196;6.838;2022-11-13T00:38:28;6.50;99.90
37702;DHT22;23548;51.196;6.838;2022-11-13T00:40:54;6.50;99.90
37702;DHT22;23548;51.196;6.838;2022-11-13T00:43:20;6.50;99.90
37702;DHT22;23548;51.196;6.838;2022-11-13T00:45:46;6.60;99.90
37702;DHT22;23548;51.196;6.838;2022-11-13T00:48:11;6.60;99.90
37702;DHT22;23548;51.196;6.838;2022-11-13T00:50:37;6.60;99.90
37702;DHT22;23548;51.196;6.838;2022-11-13T00:53:03;6.70;99.90
37702;DHT22;23548;51.196;6.838;2022-11-13T00:55:29;6.70;99.90
37702;DHT22;23548;51.196;6.838;2022-11-13T00:57:55;6.70;99.90
37702;DHT22;23548;51.196;6.838;2022-11-13T01:00:20;6.60;99.90
37702;DHT22;23548;51.196;6.838;2022-11-13T01:02:46;6.70;99.90
37702;DHT22;23548;51.196;6.838;2022-11-13T01:05:12;6.80;99.90
37702;DHT22;23548;51.196;6.838;2022-11-13T01:07:38;6.80;99.90
37702;DHT22;23548;51.196;6.838;2022-11-13T01:10:04;6.80;99.90
37702;DHT22;23548;51.196;6.838;2022-11-13T01:12:30;6.90;99.90
37702;DHT22;23548;51.196;6.838;2022-11-13T01:14:57;6.80;99.90
37702;DHT22;23548;51.196;6.838;2022-11-13T01:17:23;6.80;99.90
37702;DHT22;23548;51.196;6.838;2022-11-13T01:19:48;6.80;99.90
37702;DHT22;23548;51.196;6.838;2022-11-13T01:22:14;6.70;99.90
37702;DHT22;23548;51.196;6.838;2022-11-13T01:24:40;6.70;99.90
37702;DHT22;23548;51.196;6.838;2022-11-13T01:27:05;6.70;99.90
37702;DHT22;23548;51.196;6.838;2022-11-13T01:29:31;6.70;99.90
37702;DHT22;23548;51.196;6.838;2022-11-13T01:31:58;6.70;99.90
37702;DHT22;23548;51.196;6.838;2022-11-13T01:34:24;6.60;99.90
37702;DHT22;23548;51.196;6.838;2022-11-13T01:36:49;6.60;99.90
37702;DHT22;23548;51.196;6.838;2022-11-13T01:39:15;6.60;99.90
37702;DHT22;23548;51.196;6.838;2022-11-13T01:41:41;6.60;99.90
37702;DHT22;23548;51.196;6.838;2022-11-13T01:44:12;6.60;99.90
37702;DHT22;23548;51.196;6.838;2022-11-13T01:46:44;6.70;99.90
37702;DHT22;23548;51.196;6.838;2022-11-13T01:51:56;6.80;99.90
37702;DHT22;23548;51.196;6.838;2022-11-13T01:54:26;6.80;99.90
37702;DHT22;23548;51.196;6.838;2022-11-13T01:56:54;6.90;99.90
37702;DHT22;23548;51.196;6.838;2022-11-13T01:59:24;6.90;99.90
37702;DHT22;23548;51.196;6.838;2022-11-13T02:01:51;6.90;99.90
37702;DHT22;23548;51.196;6.838;2022-11-13T02:04:18;7.00;99.90
37702;DHT22;23548;51.196;6.838;2022-11-13T02:07:14;7.00;99.90
37702;DHT22;23548;51.196;6.838;2022-11-13T02:09:46;7.00;99.90
37702;DHT22;23548;51.196;6.838;2022-11-13T02:12:16;7.00;99.90
37702;DHT22;23548;51.196;6.838;2022-11-13T02:14:46;7.00;99.90
37702;DHT22;23548;51.196;6.838;2022-11-13T02:17:18;7.00;99.90
37702;DHT22;23548;51.196;6.838;2022-11-13T02:19:49;7.00;99.90
37702;DHT22;23548;51.196;6.838;2022-11-13T02:22:22;7.00;99.90
37702;DHT22;23548;51.196;6.838;2022-11-13T02:24:50;7.00;99.90
37702;DHT22;23548;51.196;6.838;2022-11-13T02:27:27;7.00;99.90
37702;DHT22;23548;51.196;6.838;2022-11-13T02:29:54;7.00;99.90
37702;DHT22;23548;51.196;6.838;2022-11-13T02:32:20;6.90;99.90
37702;DHT22;23548;51.196;6.838;2022-11-13T02:34:46;6.90;99.90
37702;DHT22;23548;51.196;6.838;2022-11-13T02:37:12;6.90;99.90
37702;DHT22;23548;51.196;6.838;2022-11-13T02:39:38;6.90;99.90
37702;DHT22;23548;51.196;6.838;2022-11-13T02:42:03;6.80;99.90
37702;DHT22;23548;51.196;6.838;2022-11-13T02:44:29;6.80;99.90
37702;DHT22;23548;51.196;6.838;2022-11-13T02:46:55;6.80;99.90
37702;DHT22;23548;51.196;6.838;2022-11-13T02:49:21;6.80;99.90
37702;DHT22;23548;51.196;6.838;2022-11-13T02:51:46;6.80;99.90
37702;DHT22;23548;51.196;6.838;2022-11-13T02:54:12;6.80;99.90
37702;DHT22;23548;51.196;6.838;2022-11-13T02:56:38;6.70;99.90
37702;DHT22;23548;51.196;6.838;2022-11-13T02:59:03;6.70;99.90
37702;DHT22;23548;51.196;6.838;2022-11-13T03:01:29;6.70;99.90
37702;DHT22;23548;51.196;6.838;2022-11-13T03:03:55;6.60;99.90
37702;DHT22;23548;51.196;6.838;2022-11-13T03:06:21;6.50;99.90
37702;DHT22;23548;51.196;6.838;2022-11-13T03:08:46;6.50;99.90
37702;DHT22;23548;51.196;6.838;2022-11-13T03:11:12;6.40;99.90
37702;DHT22;23548;51.196;6.838;2022-11-13T03:13:38;6.40;99.90
37702;DHT22;23548;51.196;6.838;2022-11-13T03:16:12;6.40;99.90
37702;DHT22;23548;51.196;6.838;2022-11-13T03:18:38;6.30;99.90
37702;DHT22;23548;51.196;6.838;2022-11-13T03:21:07;6.30;99.90
37702;DHT22;23548;51.196;6.838;2022-11-13T03:23:33;6.30;99.90
37702;DHT22;23548;51.196;6.838;2022-11-13T03:26:10;6.30;99.90
37702;DHT22;23548;51.196;6.838;2022-11-13T03:28:36;6.30;99.90
37702;DHT22;23548;51.196;6.838;2022-11-13T03:31:03;6.20;99.90
37702;DHT22;23548;51.196;6.838;2022-11-13T03:33:30;6.10;99.90
37702;DHT22;23548;51.196;6.838;2022-11-13T03:35:56;6.10;99.90
37702;DHT22;23548;51.196;6.838;2022-11-13T03:38:22;6.20;99.90
37702;DHT22;23548;51.196;6.838;2022-11-13T03:40:48;6.10;99.90
37702;DHT22;23548;51.196;6.838;2022-11-13T03:43:14;6.20;99.90
37702;DHT22;23548;51.196;6.838;2022-11-13T03:45:40;6.10;99.90
37702;DHT22;23548;51.196;6.838;2022-11-13T03:48:08;6.10;99.90
37702;DHT22;23548;51.196;6.838;2022-11-13T03:50:34;6.10;99.90
37702;DHT22;23548;51.196;6.838;2022-11-13T03:52:59;6.10;99.90
37702;DHT22;23548;51.196;6.838;2022-11-13T03:55:25;6.10;99.90
37702;DHT22;23548;51.196;6.838;2022-11-13T03:57:51;6.00;99.90
37702;DHT22;23548;51.196;6.838;2022-11-13T04:00:16;6.00;99.90
37702;DHT22;23548;51.196;6.838;2022-11-13T04:02:42;5.90;99.90
37702;DHT22;23548;51.196;6.838;2022-11-13T04:05:08;5.80;99.90
37702;DHT22;23548;51.196;6.838;2022-11-13T04:07:34;5.70;99.90
37702;DHT22;23548;51.196;6.838;2022-11-13T04:10:00;5.70;99.90
37702;DHT22;23548;51.196;6.838;2022-11-13T04:12:26;5.70;99.90
37702;DHT22;23548;51.196;6.838;2022-11-13T04:14:51;5.60;99.90
37702;DHT22;23548;51.196;6.838;2022-11-13T04:17:17;5.60;99.90
37702;DHT22;23548;51.196;6.838;2022-11-13T04:19:43;5.60;99.90
37702;DHT22;23548;51.196;6.838;2022-11-13T04:22:09;5.60;99.90
37702;DHT22;23548;51.196;6.838;2022-11-13T04:24:34;5.60;99.90
37702;DHT22;23548;51.196;6.838;2022-11-13T04:27:00;5.60;99.90
37702;DHT22;23548;51.196;6.838;2022-11-13T04:29:26;5.60;99.90
37702;DHT22;23548;51.196;6.838;2022-11-13T04:31:52;5.60;99.90
37702;DHT22;23548;51.196;6.838;2022-11-13T04:34:18;5.70;99.90
37702;DHT22;23548;51.196;6.838;2022-11-13T04:36:43;5.70;99.90
37702;DHT22;23548;51.196;6.838;2022-11-13T04:39:09;5.70;99.90
37702;DHT22;23548;51.196;6.838;2022-11-13T04:41:35;5.70;99.90
37702;DHT22;23548;51.196;6.838;2022-11-13T04:44:19;5.60;99.90
37702;DHT22;23548;51.196;6.838;2022-11-13T04:46:45;5.60;99.90
37702;DHT22;23548;51.196;6.838;2022-11-13T04:49:10;5.50;99.90
37702;DHT22;23548;51.196;6.838;2022-11-13T04:51:36;5.50;99.90
37702;DHT22;23548;51.196;6.838;2022-11-13T04:54:02;5.40;99.90
37702;DHT22;23548;51.196;6.838;2022-11-13T04:56:28;5.40;99.90
37702;DHT22;23548;51.196;6.838;2022-11-13T04:58:54;5.30;99.90
37702;DHT22;23548;51.196;6.838;2022-11-13T05:01:20;5.30;99.90
37702;DHT22;23548;51.196;6.838;2022-11-13T05:03:46;5.20;99.90
37702;DHT22;23548;51.196;6.838;2022-11-13T05:06:11;5.20;99.90
37702;DHT22;23548;51.196;6.838;2022-11-13T05:08:37;5.20;99.90
37702;DHT22;23548;51.196;6.838;2022-11-13T05:11:04;5.10;99.90
37702;DHT22;23548;51.196;6.838;2022-11-13T05:13:31;5.10;99.90
37702;DHT22;23548;51.196;6.838;2022-11-13T05:16:06;5.10;99.90
37702;DHT22;23548;51.196;6.838;2022-11-13T05:18:33;5.10;99.90
37702;DHT22;23548;51.196;6.838;2022-11-13T05:20:59;5.10;99.90
37702;DHT22;23548;51.196;6.838;2022-11-13T05:23:25;5.10;99.90
37702;DHT22;23548;51.196;6.838;2022-11-13T05:25:51;5.10;99.90
37702;DHT22;23548;51.196;6.838;2022-11-13T05:28:17;5.10;99.90
37702;DHT22;23548;51.196;6.838;2022-11-13T05:30:43;5.00;99.90
37702;DHT22;23548;51.196;6.838;2022-11-13T05:33:09;5.00;99.90
37702;DHT22;23548;51.196;6.838;2022-11-13T05:35:35;4.90;99.90
37702;DHT22;23548;51.196;6.838;2022-11-13T05:38:01;4.90;99.90
37702;DHT22;23548;51.196;6.838;2022-11-13T05:40:28;4.80;99.90
37702;DHT22;23548;51.196;6.838;2022-11-13T05:42:54;4.80;99.90
37702;DHT22;23548;51.196;6.838;2022-11-13T05:45:21;4.80;99.90
37702;DHT22;23548;51.196;6.838;2022-11-13T05:47:47;4.80;99.90
37702;DHT22;23548;51.196;6.838;2022-11-13T05:50:14;4.70;99.90
37702;DHT22;23548;51.196;6.838;2022-11-13T05:52:40;4.70;99.90
37702;DHT22;23548;51.196;6.838;2022-11-13T05:55:06;4.60;99.90
37702;DHT22;23548;51.196;6.838;2022-11-13T05:57:32;4.60;99.90
37702;DHT22;23548;51.196;6.838;2022-11-13T05:59:57;4.50;99.90
37702;DHT22;23548;51.196;6.838;2022-11-13T06:02:23;4.50;99.90
37702;DHT22;23548;51.196;6.838;2022-11-13T06:04:49;4.50;99.90
37702;DHT22;23548;51.196;6.838;2022-11-13T06:07:15;4.50;99.90
37702;DHT22;23548;51.196;6.838;2022-11-13T06:09:40;4.50;99.90
37702;DHT22;23548;51.196;6.838;2022-11-13T06:12:06;4.70;99.90
37702;DHT22;23548;51.196;6.838;2022-11-13T06:14:32;4.90;99.90
37702;DHT22;23548;51.196;6.838;2022-11-13T06:16:58;4.90;99.90
37702;DHT22;23548;51.196;6.838;2022-11-13T06:19:24;5.00;99.90
37702;DHT22;23548;51.196;6.838;2022-11-13T06:21:50;5.00;99.90
37702;DHT22;23548;51.196;6.838;2022-11-13T06:24:15;5.10;99.90
37702;DHT22;23548;51.196;6.838;2022-11-13T06:26:42;5.10;99.90
37702;DHT22;23548;51.196;6.838;2022-11-13T06:29:10;5.00;99.90
37702;DHT22;23548;51.196;6.838;2022-11-13T06:31:37;5.20;99.90
37702;DHT22;23548;51.196;6.838;2022-11-13T06:34:04;5.30;99.90
37702;DHT22;23548;51.196;6.838;2022-11-13T06:36:35;5.40;99.90
37702;DHT22;23548;51.196;6.838;2022-11-13T06:39:03;5.40;99.90
37702;DHT22;23548;51.196;6.838;2022-11-13T06:41:30;5.40;99.90
37702;DHT22;23548;51.196;6.838;2022-11-13T06:43:58;5.30;99.90
37702;DHT22;23548;51.196;6.838;2022-11-13T06:46:26;5.40;99.90
37702;DHT22;23548;51.196;6.838;2022-11-13T06:48:52;5.30;99.90
37702;DHT22;23548;51.196;6.838;2022-11-13T06:51:23;5.40;99.90
37702;DHT22;23548;51.196;6.838;2022-11-13T06:53:50;5.40;99.90
37702;DHT22;23548;51.196;6.838;2022-11-13T06:56:17;5.40;99.90
37702;DHT22;23548;51.196;6.838;2022-11-13T06:58:43;5.40;99.90
37702;DHT22;23548;51.196;6.838;2022-11-13T07:01:12;5.30;99.90
37702;DHT22;23548;51.196;6.838;2022-11-13T07:03:38;5.20;99.90
37702;DHT22;23548;51.196;6.838;2022-11-13T07:06:07;5.30;99.90
37702;DHT22;23548;51.196;6.838;2022-11-13T07:08:33;5.40;99.90
37702;DHT22;23548;51.196;6.838;2022-11-13T07:10:59;5.40;99.90
37702;DHT22;23548;51.196;6.838;2022-11-13T07:13:26;5.40;99.90
37702;DHT22;23548;51.196;6.838;2022-11-13T07:15:52;5.40;99.90
37702;DHT22;23548;51.196;6.838;2022-11-13T07:18:18;5.50;99.90
37702;DHT22;23548;51.196;6.838;2022-11-13T07:20:44;5.50;99.90
37702;DHT22;23548;51.196;6.838;2022-11-13T07:23:11;5.50;99.90
37702;DHT22;23548;51.196;6.838;2022-11-13T07:25:36;5.40;99.90
37702;DHT22;23548;51.196;6.838;2022-11-13T07:28:02;5.30;99.90
37702;DHT22;23548;51.196;6.838;2022-11-13T07:30:28;5.20;99.90
37702;DHT22;23548;51.196;6.838;2022-11-13T07:32:54;5.20;99.90
37702;DHT22;23548;51.196;6.838;2022-11-13T07:35:20;5.20;99.90
37702;DHT22;23548;51.196;6.838;2022-11-13T07:37:46;5.40;99.90
37702;DHT22;23548;51.196;6.838;2022-11-13T07:40:12;5.20;99.90
37702;DHT22;23548;51.196;6.838;2022-11-13T07:42:38;5.30;99.90
37702;DHT22;23548;51.196;6.838;2022-11-13T07:45:05;5.40;99.90
37702;DHT22;23548;51.196;6.838;2022-11-13T07:47:31;5.30;99.90
37702;DHT22;23548;51.196;6.838;2022-11-13T07:49:57;5.30;99.90
37702;DHT22;23548;51.196;6.838;2022-11-13T07:52:22;5.40;99.90
37702;DHT22;23548;51.196;6.838;2022-11-13T07:54:49;5.40;99.90
37702;DHT22;23548;51.196;6.838;2022-11-13T07:57:15;5.40;99.90
37702;DHT22;23548;51.196;6.838;2022-11-13T07:59:40;5.50;99.90
37702;DHT22;23548;51.196;6.838;2022-11-13T08:02:12;5.60;99.90
37702;DHT22;23548;51.196;6.838;2022-11-13T08:04:39;5.60;99.90
37702;DHT22;23548;51.196;6.838;2022-11-13T08:07:05;5.60;99.90
37702;DHT22;23548;51.196;6.838;2022-11-13T08:09:31;5.80;99.90
37702;DHT22;23548;51.196;6.838;2022-11-13T08:11:57;5.90;99.90
37702;DHT22;23548;51.196;6.838;2022-11-13T08:14:22;6.00;99.90
37702;DHT22;23548;51.196;6.838;2022-11-13T08:16:48;6.10;99.90
37702;DHT22;23548;51.196;6.838;2022-11-13T08:19:14;6.20;99.90
37702;DHT22;23548;51.196;6.838;2022-11-13T08:21:40;6.30;99.90
37702;DHT22;23548;51.196;6.838;2022-11-13T08:24:06;6.40;99.90
37702;DHT22;23548;51.196;6.838;2022-11-13T08:26:32;6.50;99.90
37702;DHT22;23548;51.196;6.838;2022-11-13T08:28:58;6.60;99.90
37702;DHT22;23548;51.196;6.838;2022-11-13T08:31:23;6.80;99.90
37702;DHT22;23548;51.196;6.838;2022-11-13T08:33:49;6.80;99.90
37702;DHT22;23548;51.196;6.838;2022-11-13T08:36:15;6.90;99.90
37702;DHT22;23548;51.196;6.838;2022-11-13T08:38:41;7.00;99.90
37702;DHT22;23548;51.196;6.838;2022-11-13T08:41:06;7.10;99.90
37702;DHT22;23548;51.196;6.838;2022-11-13T08:43:32;7.20;99.90
37702;DHT22;23548;51.196;6.838;2022-11-13T08:45:58;7.30;99.90
37702;DHT22;23548;51.196;6.838;2022-11-13T08:48:24;7.50;99.90
37702;DHT22;23548;51.196;6.838;2022-11-13T08:50:52;7.50;99.90
37702;DHT22;23548;51.196;6.838;2022-11-13T08:53:18;7.60;99.90
37702;DHT22;23548;51.196;6.838;2022-11-13T08:55:43;7.70;99.90
37702;DHT22;23548;51.196;6.838;2022-11-13T08:58:09;7.80;99.90
37702;DHT22;23548;51.196;6.838;2022-11-13T09:00:35;7.90;99.90
37702;DHT22;23548;51.196;6.838;2022-11-13T09:03:01;7.90;99.90
37702;DHT22;23548;51.196;6.838;2022-11-13T09:05:27;8.10;99.90
37702;DHT22;23548;51.196;6.838;2022-11-13T09:07:57;8.20;99.90
37702;DHT22;23548;51.196;6.838;2022-11-13T09:10:25;8.30;99.90
37702;DHT22;23548;51.196;6.838;2022-11-13T09:13:04;8.40;99.90
37702;DHT22;23548;51.196;6.838;2022-11-13T09:15:31;8.50;99.90
37702;DHT22;23548;51.196;6.838;2022-11-13T09:17:58;8.70;99.90
37702;DHT22;23548;51.196;6.838;2022-11-13T09:20:26;8.70;99.90
37702;DHT22;23548;51.196;6.838;2022-11-13T09:22:59;8.90;99.90
37702;DHT22;23548;51.196;6.838;2022-11-13T09:25:27;9.00;99.90
37702;DHT22;23548;51.196;6.838;2022-11-13T09:27:55;9.10;99.90
37702;DHT22;23548;51.196;6.838;2022-11-13T09:30:21;9.10;99.90
37702;DHT22;23548;51.196;6.838;2022-11-13T09:32:47;9.20;99.90
37702;DHT22;23548;51.196;6.838;2022-11-13T09:35:16;9.30;99.90
37702;DHT22;23548;51.196;6.838;2022-11-13T09:38:31;9.50;99.90
37702;DHT22;23548;51.196;6.838;2022-11-13T09:41:02;9.60;99.90
37702;DHT22;23548;51.196;6.838;2022-11-13T09:48:56;10.00;99.90
37702;DHT22;23548;51.196;6.838;2022-11-13T09:51:32;10.20;99.90
37702;DHT22;23548;51.196;6.838;2022-11-13T09:54:03;10.30;99.90
37702;DHT22;23548;51.196;6.838;2022-11-13T09:56:36;10.40;99.90
37702;DHT22;23548;51.196;6.838;2022-11-13T10:13:13;10.70;99.90
37702;DHT22;23548;51.196;6.838;2022-11-13T10:15:42;10.80;99.90
37702;DHT22;23548;51.196;6.838;2022-11-13T10:18:22;10.90;99.90
37702;DHT22;23548;51.196;6.838;2022-11-13T10:20:55;11.00;99.90
37702;DHT22;23548;51.196;6.838;2022-11-13T10:23:34;11.10;99.90
37702;DHT22;23548;51.196;6.838;2022-11-13T10:26:17;11.20;99.90
37702;DHT22;23548;51.196;6.838;2022-11-13T10:28:43;11.30;99.90
37702;DHT22;23548;51.196;6.838;2022-11-13T10:31:11;11.40;99.90
37702;DHT22;23548;51.196;6.838;2022-11-13T10:33:37;11.50;99.90
37702;DHT22;23548;51.196;6.838;2022-11-13T10:41:16;11.70;99.90
37702;DHT22;23548;51.196;6.838;2022-11-13T10:44:05;11.90;99.90
37702;DHT22;23548;51.196;6.838;2022-11-13T10:46:32;11.90;99.90
37702;DHT22;23548;51.196;6.838;2022-11-13T10:49:21;12.00;99.90
37702;DHT22;23548;51.196;6.838;2022-11-13T10:51:55;12.10;99.90
37702;DHT22;23548;51.196;6.838;2022-11-13T10:54:30;12.20;99.90
37702;DHT22;23548;51.196;6.838;2022-11-13T10:57:19;12.20;99.90
37702;DHT22;23548;51.196;6.838;2022-11-13T10:59:46;12.30;99.90
37702;DHT22;23548;51.196;6.838;2022-11-13T11:05:36;12.50;99.90
37702;DHT22;23548;51.196;6.838;2022-11-13T11:08:08;12.60;99.90
37702;DHT22;23548;51.196;6.838;2022-11-13T11:10:36;12.70;99.90
37702;DHT22;23548;51.196;6.838;2022-11-13T11:13:22;12.70;99.90
37702;DHT22;23548;51.196;6.838;2022-11-13T11:15:57;12.90;99.90
37702;DHT22;23548;51.196;6.838;2022-11-13T11:21:06;13.00;99.90
37702;DHT22;23548;51.196;6.838;2022-11-13T11:26:15;13.10;99.90
37702;DHT22;23548;51.196;6.838;2022-11-13T11:28:48;13.10;99.90
37702;DHT22;23548;51.196;6.838;2022-11-13T11:31:28;13.20;99.90
37702;DHT22;23548;51.196;6.838;2022-11-13T11:34:04;13.20;99.90
37702;DHT22;23548;51.196;6.838;2022-11-13T11:42:26;13.50;99.90
37702;DHT22;23548;51.196;6.838;2022-11-13T11:47:57;13.60;99.90
37702;DHT22;23548;51.196;6.838;2022-11-13T11:53:14;13.70;99.90
37702;DHT22;23548;51.196;6.838;2022-11-13T11:55:57;13.70;99.90
37702;DHT22;23548;51.196;6.838;2022-11-13T12:09:34;13.80;99.30
37702;DHT22;23548;51.196;6.838;2022-11-13T12:15:25;13.80;97.80
37702;DHT22;23548;51.196;6.838;2022-11-13T12:34:44;13.90;95.60
37702;DHT22;23548;51.196;6.838;2022-11-13T12:40:26;13.90;95.90
37702;DHT22;23548;51.196;6.838;2022-11-13T12:48:33;14.00;96.10
37702;DHT22;23548;51.196;6.838;2022-11-13T12:51:04;14.00;96.40
37702;DHT22;23548;51.196;6.838;2022-11-13T12:53:43;14.00;96.60
37702;DHT22;23548;51.196;6.838;2022-11-13T12:56:32;14.00;96.20
37702;DHT22;23548;51.196;6.838;2022-11-13T12:59:03;14.00;96.30
37702;DHT22;23548;51.196;6.838;2022-11-13T13:01:34;14.10;96.40
37702;DHT22;23548;51.196;6.838;2022-11-13T13:09:54;14.10;95.40
37702;DHT22;23548;51.196;6.838;2022-11-13T13:18:26;14.30;94.80
37702;DHT22;23548;51.196;6.838;2022-11-13T13:23:34;14.20;94.80
37702;DHT22;23548;51.196;6.838;2022-11-13T13:26:13;14.30;94.60
37702;DHT22;23548;51.196;6.838;2022-11-13T13:28:43;14.30;94.40
37702;DHT22;23548;51.196;6.838;2022-11-13T13:31:40;14.30;94.60
37702;DHT22;23548;51.196;6.838;2022-11-13T13:37:32;14.40;94.30
37702;DHT22;23548;51.196;6.838;2022-11-13T13:40:30;14.30;93.80
37702;DHT22;23548;51.196;6.838;2022-11-13T13:49:04;14.40;94.30
37702;DHT22;23548;51.196;6.838;2022-11-13T13:51:39;14.30;94.20
37702;DHT22;23548;51.196;6.838;2022-11-13T13:54:07;14.40;94.20
37702;DHT22;23548;51.196;6.838;2022-11-13T13:56:39;14.40;93.80
37702;DHT22;23548;51.196;6.838;2022-11-13T13:59:17;14.40;93.70
37702;DHT22;23548;51.196;6.838;2022-11-13T14:01:55;14.40;93.10
37702;DHT22;23548;51.196;6.838;2022-11-13T14:04:24;14.50;92.90
37702;DHT22;23548;51.196;6.838;2022-11-13T14:06:54;14.60;92.80
37702;DHT22;23548;51.196;6.838;2022-11-13T14:09:28;14.70;92.50
37702;DHT22;23548;51.196;6.838;2022-11-13T14:11:59;15.10;93.00
37702;DHT22;23548;51.196;6.838;2022-11-13T14:14:26;16.70;90.70
37702;DHT22;23548;51.196;6.838;2022-11-13T14:16:54;18.20;88.10
37702;DHT22;23548;51.196;6.838;2022-11-13T14:19:21;19.80;83.90
37702;DHT22;23548;51.196;6.838;2022-11-13T14:21:54;20.90;78.60
37702;DHT22;23548;51.196;6.838;2022-11-13T14:24:54;21.40;74.10
37702;DHT22;23548;51.196;6.838;2022-11-13T14:27:25;22.40;70.50
37702;DHT22;23548;51.196;6.838;2022-11-13T14:30:01;22.70;66.60
37702;DHT22;23548;51.196;6.838;2022-11-13T14:32:33;23.10;62.90
37702;DHT22;23548;51.196;6.838;2022-11-13T14:35:04;23.10;60.40
37702;DHT22;23548;51.196;6.838;2022-11-13T14:37:32;23.20;60.80
37702;DHT22;23548;51.196;6.838;2022-11-13T14:40:02;23.40;58.90
37702;DHT22;23548;51.196;6.838;2022-11-13T14:42:33;23.20;58.90
37702;DHT22;23548;51.196;6.838;2022-11-13T14:50:31;21.80;58.70
37702;DHT22;23548;51.196;6.838;2022-11-13T14:53:08;20.30;60.90
37702;DHT22;23548;51.196;6.838;2022-11-13T14:55:50;18.70;65.40
37702;DHT22;23548;51.196;6.838;2022-11-13T14:58:38;17.10;70.00
37702;DHT22;23548;51.196;6.838;2022-11-13T15:01:19;16.00;74.00
37702;DHT22;23548;51.196;6.838;2022-11-13T15:03:46;15.20;77.30
37702;DHT22;23548;51.196;6.838;2022-11-13T15:06:18;14.80;79.70
37702;DHT22;23548;51.196;6.838;2022-11-13T15:08:45;14.40;81.50
37702;DHT22;23548;51.196;6.838;2022-11-13T15:11:21;14.10;83.80
37702;DHT22;23548;51.196;6.838;2022-11-13T15:13:47;13.80;85.30
37702;DHT22;23548;51.196;6.838;2022-11-13T15:16:23;13.70;86.50
37702;DHT22;23548;51.196;6.838;2022-11-13T15:18:57;13.60;88.00
37702;DHT22;23548;51.196;6.838;2022-11-13T15:21:24;13.50;90.60
37702;DHT22;23548;51.196;6.838;2022-11-13T15:23:49;13.70;91.10
37702;DHT22;23548;51.196;6.838;2022-11-13T15:26:15;13.70;91.40
37702;DHT22;23548;51.196;6.838;2022-11-13T15:28:41;13.60;92.10
37702;DHT22;23548;51.196;6.838;2022-11-13T15:31:28;13.60;92.20
37702;DHT22;23548;51.196;6.838;2022-11-13T15:33:54;13.70;92.10
37702;DHT22;23548;51.196;6.838;2022-11-13T15:36:20;13.70;92.40
37702;DHT22;23548;51.196;6.838;2022-11-13T15:38:47;13.70;92.50
37702;DHT22;23548;51.196;6.838;2022-11-13T15:41:19;13.70;92.70
37702;DHT22;23548;51.196;6.838;2022-11-13T15:43:49;13.40;93.00
37702;DHT22;23548;51.196;6.838;2022-11-13T15:46:18;13.20;93.50
37702;DHT22;23548;51.196;6.838;2022-11-13T15:48:45;13.00;94.20
37702;DHT22;23548;51.196;6.838;2022-11-13T15:51:38;12.80;94.50
37702;DHT22;23548;51.196;6.838;2022-11-13T15:56:36;12.50;95.50
37702;DHT22;23548;51.196;6.838;2022-11-13T15:59:02;12.30;96.50
37702;DHT22;23548;51.196;6.838;2022-11-13T16:01:27;12.10;96.90
37702;DHT22;23548;51.196;6.838;2022-11-13T16:03:53;11.80;97.60
37702;DHT22;23548;51.196;6.838;2022-11-13T16:06:21;11.60;98.80
37702;DHT22;23548;51.196;6.838;2022-11-13T16:08:48;11.40;99.40
37702;DHT22;23548;51.196;6.838;2022-11-13T16:11:16;11.30;99.80
37702;DHT22;23548;51.196;6.838;2022-11-13T16:13:42;11.20;99.90
37702;DHT22;23548;51.196;6.838;2022-11-13T16:16:23;11.00;99.90
37702;DHT22;23548;51.196;6.838;2022-11-13T16:18:51;10.90;99.90
37702;DHT22;23548;51.196;6.838;2022-11-13T16:21:19;10.80;99.90
37702;DHT22;23548;51.196;6.838;2022-11-13T16:23:46;10.60;99.90
37702;DHT22;23548;51.196;6.838;2022-11-13T16:26:16;10.50;99.90
37702;DHT22;23548;51.196;6.838;2022-11-13T16:28:43;10.30;99.90
37702;DHT22;23548;51.196;6.838;2022-11-13T16:31:10;10.10;99.90
37702;DHT22;23548;51.196;6.838;2022-11-13T16:33:36;10.00;99.90
37702;DHT22;23548;51.196;6.838;2022-11-13T16:36:02;9.80;99.90
37702;DHT22;23548;51.196;6.838;2022-11-13T16:38:28;9.70;99.90
37702;DHT22;23548;51.196;6.838;2022-11-13T16:40:53;9.60;99.90
37702;DHT22;23548;51.196;6.838;2022-11-13T16:43:19;9.50;99.90
37702;DHT22;23548;51.196;6.838;2022-11-13T16:45:45;9.40;99.90
37702;DHT22;23548;51.196;6.838;2022-11-13T16:48:12;9.30;99.90
37702;DHT22;23548;51.196;6.838;2022-11-13T16:50:39;9.30;99.90
37702;DHT22;23548;51.196;6.838;2022-11-13T16:53:06;9.20;99.90
37702;DHT22;23548;51.196;6.838;2022-11-13T16:55:35;9.20;99.90
37702;DHT22;23548;51.196;6.838;2022-11-13T16:58:04;9.10;99.90
37702;DHT22;23548;51.196;6.838;2022-11-13T17:00:30;9.10;99.90
37702;DHT22;23548;51.196;6.838;2022-11-13T17:02:56;9.00;99.90
37702;DHT22;23548;51.196;6.838;2022-11-13T17:05:22;9.00;99.90
37702;DHT22;23548;51.196;6.838;2022-11-13T17:07:49;8.90;99.90
37702;DHT22;23548;51.196;6.838;2022-11-13T17:10:20;8.90;99.90
37702;DHT22;23548;51.196;6.838;2022-11-13T17:12:51;8.80;99.90
37702;DHT22;23548;51.196;6.838;2022-11-13T17:15:17;8.70;99.90
37702;DHT22;23548;51.196;6.838;2022-11-13T17:17:44;8.70;99.90
37702;DHT22;23548;51.196;6.838;2022-11-13T17:20:10;8.70;99.90
37702;DHT22;23548;51.196;6.838;2022-11-13T17:22:36;8.70;99.90
37702;DHT22;23548;51.196;6.838;2022-11-13T17:25:02;8.60;99.90
37702;DHT22;23548;51.196;6.838;2022-11-13T17:27:29;8.60;99.90
37702;DHT22;23548;51.196;6.838;2022-11-13T17:29:55;8.60;99.90
37702;DHT22;23548;51.196;6.838;2022-11-13T17:32:22;8.60;99.90
37702;DHT22;23548;51.196;6.838;2022-11-13T17:34:47;8.50;99.90
37702;DHT22;23548;51.196;6.838;2022-11-13T17:37:14;8.50;99.90
37702;DHT22;23548;51.196;6.838;2022-11-13T17:39:40;8.40;99.90
37702;DHT22;23548;51.196;6.838;2022-11-13T17:42:07;8.30;99.90
37702;DHT22;23548;51.196;6.838;2022-11-13T17:44:32;8.20;99.90
37702;DHT22;23548;51.196;6.838;2022-11-13T17:46:59;8.20;99.90
37702;DHT22;23548;51.196;6.838;2022-11-13T17:49:24;8.20;99.90
37702;DHT22;23548;51.196;6.838;2022-11-13T17:51:51;8.20;99.90